createdAt,value
2023-05-24T00:05:21.040Z,18.2
2023-05-24T00:11:12.263Z,18.2
2023-05-24T00:16:49.003Z,18.2
2023-05-24T00:22:42.559Z,18.2
2023-05-24T00:28:34.585Z,18.2
2023-05-24T00:34:11.399Z,18.2
2023-05-24T00:40:03.167Z,18.2
2023-05-24T00:45:55.005Z,18.2
2023-05-24T00:51:48.035Z,18.2
2023-05-24T00:57:24.719Z,18.2
2023-05-24T01:03:17.943Z,18.2
2023-05-24T01:09:12.578Z,18.2
2023-05-24T01:15:04.305Z,18.1
2023-05-24T01:20:55.815Z,18.1
2023-05-24T01:26:47.027Z,18.1
2023-05-24T01:32:39.484Z,18.1
2023-05-24T01:38:15.965Z,18.1
2023-05-24T01:43:52.093Z,18.1
2023-05-24T01:49:43.782Z,18.1
2023-05-24T01:55:35.395Z,18.1
2023-05-24T02:01:27.238Z,18.1
2023-05-24T02:07:03.741Z,18.1
2023-05-24T02:12:55.039Z,18.1
2023-05-24T02:18:46.585Z,18.1
2023-05-24T02:24:23.081Z,18.1
2023-05-24T02:30:14.685Z,18.1
2023-05-24T02:36:06.367Z,18.1
2023-05-24T02:41:57.137Z,18.1
2023-05-24T02:47:49.284Z,18.1
2023-05-24T02:53:25.560Z,18.1
2023-05-24T02:59:17.383Z,18.1
2023-05-24T03:05:10.307Z,18.1
2023-05-24T03:11:04.111Z,18
2023-05-24T03:16:54.570Z,18.1
2023-05-24T03:22:47.345Z,18
2023-05-24T03:28:38.916Z,18.1
2023-05-24T03:34:30.062Z,18.1
2023-05-24T03:40:21.860Z,18
2023-05-24T03:46:28.118Z,18
2023-05-24T03:52:20.123Z,18
2023-05-24T03:58:11.822Z,18
2023-05-24T04:04:18.906Z,18
2023-05-24T04:09:39.193Z,18
2023-05-24T04:15:30.957Z,18
2023-05-24T04:21:24.242Z,18
2023-05-24T04:27:16.006Z,18
2023-05-24T04:33:08.637Z,18
2023-05-24T04:39:00.516Z,18
2023-05-24T04:44:51.625Z,17.9
2023-05-24T04:50:44.542Z,18
2023-05-24T04:56:35.895Z,18
2023-05-24T05:02:14.491Z,18
2023-05-24T05:08:07.120Z,18
2023-05-24T05:13:59.424Z,17.9
2023-05-24T05:19:51.477Z,17.9
2023-05-24T05:25:28.783Z,17.9
2023-05-24T05:31:05.038Z,17.9
2023-05-24T05:36:44.367Z,17.9
2023-05-24T05:42:36.811Z,17.9
2023-05-24T05:48:12.751Z,17.9
2023-05-24T05:54:04.467Z,17.9
2023-05-24T05:59:56.451Z,17.9
2023-05-24T06:05:50.191Z,17.9
2023-05-24T06:11:43.045Z,17.9
2023-05-24T06:17:34.733Z,17.9
2023-05-24T06:23:37.320Z,17.9
2023-05-24T06:29:28.043Z,17.9
2023-05-24T06:35:28.415Z,17.9
2023-05-24T06:41:19.841Z,17.9
2023-05-24T06:47:10.288Z,17.9
2023-05-24T06:53:03.638Z,17.9
2023-05-24T06:58:57.710Z,18
2023-05-24T07:04:50.073Z,17.9
2023-05-24T07:10:41.939Z,18
2023-05-24T07:16:18.558Z,17.9
2023-05-24T07:22:11.023Z,18
2023-05-24T07:28:05.184Z,18
2023-05-24T07:33:39.708Z,18
2023-05-24T07:39:18.949Z,18
2023-05-24T07:45:10.952Z,18
2023-05-24T07:50:47.987Z,18
2023-05-24T07:56:39.350Z,18
2023-05-24T08:02:32.022Z,18
2023-05-24T08:08:08.976Z,18
2023-05-24T08:14:00.298Z,18
2023-05-24T08:19:37.439Z,18
2023-05-24T08:25:32.494Z,18.1
2023-05-24T08:31:25.078Z,18
2023-05-24T08:37:17.309Z,18.1
2023-05-24T08:43:20.820Z,18.1
2023-05-24T08:48:58.040Z,18.1
2023-05-24T08:54:52.730Z,18.1
2023-05-24T09:00:44.839Z,18.1
2023-05-24T09:06:07.860Z,18.2
2023-05-24T09:11:44.306Z,18.2
2023-05-24T09:17:49.892Z,18.3
2023-05-24T09:23:46.045Z,18.3
2023-05-24T09:29:22.753Z,18.3
2023-05-24T09:35:00.376Z,18.3
2023-05-24T09:40:51.394Z,18.3
2023-05-24T09:46:13.978Z,18.4
2023-05-24T09:52:07.021Z,18.4
2023-05-24T09:57:44.086Z,18.4
2023-05-24T10:03:48.503Z,18.4
2023-05-24T10:09:44.310Z,18.4
2023-05-24T10:15:36.089Z,18.5
2023-05-24T10:45:00.247Z,18.5
2023-05-24T10:50:40.652Z,18.6
2023-05-24T10:56:11.449Z,18.6
2023-05-24T11:22:37.050Z,18.8
2023-05-24T11:28:13.025Z,18.8
2023-05-24T11:33:55.654Z,18.8
2023-05-24T11:39:41.965Z,18.8
2023-05-24T11:45:18.675Z,18.8
2023-05-24T11:51:06.290Z,18.8
2023-05-24T11:56:43.286Z,18.8
2023-05-24T12:02:20.396Z,18.8
2023-05-24T12:08:02.212Z,18.8
2023-05-24T12:13:52.255Z,18.8
2023-05-24T12:19:47.114Z,18.8
2023-05-24T12:25:26.329Z,18.8
2023-05-24T12:31:03.476Z,18.8
2023-05-24T12:36:41.081Z,18.8
2023-05-24T12:42:35.805Z,18.9
2023-05-24T12:48:28.076Z,18.8
2023-05-24T12:54:04.282Z,18.9
2023-05-24T12:59:27.070Z,18.9
2023-05-24T13:05:03.932Z,18.9
2023-05-24T13:10:25.339Z,18.9
2023-05-24T13:16:02.578Z,18.9
2023-05-24T13:21:39.800Z,18.9
2023-05-24T13:27:15.539Z,18.9
2023-05-24T13:33:21.553Z,18.9
2023-05-24T13:39:13.799Z,19
2023-05-24T13:44:20.195Z,19
2023-05-24T13:49:54.614Z,19
2023-05-24T13:55:17.658Z,19
2023-05-24T14:00:42.802Z,19
2023-05-24T14:06:19.546Z,19
2023-05-24T14:11:58.596Z,19
2023-05-24T14:18:53.480Z,19
2023-05-24T14:24:15.144Z,19
2023-05-24T14:29:36.292Z,19.1
2023-05-24T14:34:57.980Z,19
2023-05-24T14:40:36.742Z,19
2023-05-24T14:45:58.178Z,19
2023-05-24T14:51:34.728Z,19
2023-05-24T14:57:11.340Z,19
2023-05-24T15:02:51.012Z,19.1
2023-05-24T15:08:27.204Z,19.1
2023-05-24T15:14:04.237Z,19.1
2023-05-24T15:19:40.660Z,19.1
2023-05-24T15:25:17.849Z,19
2023-05-24T15:30:56.526Z,19.1
2023-05-24T15:36:35.547Z,19.1
2023-05-24T15:42:10.714Z,19.1
2023-05-24T15:48:02.779Z,19.1
2023-05-24T15:55:04.735Z,19.1
2023-05-24T16:00:55.084Z,19.1
2023-05-24T16:06:32.094Z,19.1
2023-05-24T16:12:11.558Z,19.1
2023-05-24T16:18:05.498Z,19.1
2023-05-24T16:23:58.385Z,19.1
2023-05-24T16:29:52.967Z,19.1
2023-05-24T16:36:03.193Z,19.1
2023-05-24T16:41:55.057Z,19.1
2023-05-24T16:47:31.651Z,19.1
2023-05-24T16:53:23.434Z,19.1
2023-05-24T16:59:14.932Z,19.1
2023-05-24T17:05:10.451Z,19.1
2023-05-24T17:11:05.344Z,19.1
2023-05-24T17:16:56.975Z,19.1
2023-05-24T17:22:48.813Z,19.1
2023-05-24T17:28:28.904Z,19.1
2023-05-24T17:34:21.219Z,19.1
2023-05-24T17:40:12.561Z,19.1
2023-05-24T17:46:03.394Z,19.1
2023-05-24T17:51:44.422Z,19.1
2023-05-24T17:57:39.603Z,19.1
2023-05-24T18:03:31.550Z,19.1
2023-05-24T18:09:26.657Z,19.1
2023-05-24T18:15:19.809Z,19.1
2023-05-24T18:21:12.630Z,19.1
2023-05-24T18:27:09.079Z,19.1
2023-05-24T18:33:19.831Z,19.1
2023-05-24T18:38:56.410Z,19.1
2023-05-24T18:44:33.686Z,19.2
2023-05-24T18:50:26.483Z,19.1
2023-05-24T18:56:02.688Z,19.1
2023-05-24T19:01:41.384Z,19.1
2023-05-24T19:07:35.460Z,19.1
2023-05-24T19:13:11.074Z,19.1
2023-05-24T19:19:04.338Z,19.1
2023-05-24T19:24:57.442Z,19.1
2023-05-24T19:30:41.248Z,19.1
2023-05-24T19:36:29.340Z,19.1
2023-05-24T19:42:05.895Z,19.1
2023-05-24T19:47:57.925Z,19.1
2023-05-24T19:53:35.649Z,19.1
2023-05-24T19:59:12.397Z,19.1
2023-05-24T20:04:50.924Z,19.1
2023-05-24T20:10:27.593Z,19.1
2023-05-24T20:15:48.942Z,19.1
2023-05-24T20:21:25.830Z,19.1
2023-05-24T20:27:01.973Z,19.1
2023-05-24T20:32:51.459Z,19.1
2023-05-24T20:38:28.212Z,19.1
2023-05-24T20:44:04.353Z,19.1
2023-05-24T20:49:43.669Z,19.1
2023-05-24T20:55:19.844Z,19.1
2023-05-24T21:00:59.169Z,19.1
2023-05-24T21:06:36.654Z,19.1
2023-05-24T21:11:58.121Z,19.1
2023-05-24T21:17:19.320Z,19.1
2023-05-24T21:22:56.236Z,19.1
2023-05-24T21:28:16.661Z,19.1
2023-05-24T21:33:53.539Z,19.1
2023-05-24T21:39:29.889Z,19.1
2023-05-24T21:45:05.838Z,19.1
2023-05-24T21:50:58.256Z,19
2023-05-24T21:56:50.282Z,19.1
2023-05-24T22:02:45.312Z,19.1
2023-05-24T22:08:37.804Z,19.1
2023-05-24T22:14:29.082Z,19.1
2023-05-24T22:20:29.099Z,19
2023-05-24T22:26:21.151Z,19
2023-05-24T22:31:59.326Z,19
2023-05-24T22:37:50.770Z,19
2023-05-24T22:43:27.421Z,19
2023-05-24T22:49:04.159Z,19
2023-05-24T22:54:55.475Z,19
